Time;durP1;ratioP1;P1;durP2;ratioP2;P2;SDS_P1;SDS_P2;PMS_P1;PMS_P2;Temp;Humidity;BMP_temperature;BMP_pressure;BME280_temperature;BME280_humidity;BME280_pressure;Samples;Min_cycle;Max_cycle;Signal;HPM_P1;HPM_P2
2021/12/07 00:00:40;;;;;;;;;0.00;0.00;;;;;8.32;68.40;100777.28;5025388;28;45483;-69
2021/12/07 00:03:06;;;;;;;;;3.00;1.00;;;;;8.43;67.34;100803.47;5026736;28;45634;-70
2021/12/07 00:05:31;;;;;;;;;3.00;1.00;;;;;8.24;68.30;100785.88;5043935;28;45377;-71
2021/12/07 00:07:57;;;;;;;;;1.50;1.50;;;;;8.03;67.86;100755.81;5028227;28;45369;-68
2021/12/07 00:10:22;;;;;;;;;4.00;1.00;;;;;8.47;67.24;100832.00;5023996;28;45028;-69
2021/12/07 00:12:48;;;;;;;;;1.00;1.00;;;;;8.45;68.24;100820.38;5029164;28;44978;-69
2021/12/07 00:15:17;;;;;;;;;2.50;1.75;;;;;8.48;67.05;100832.91;5029611;28;45187;-70
2021/12/07 00:17:43;;;;;;;;;1.75;1.00;;;;;8.11;67.28;100752.56;5028107;28;45812;-67
2021/12/07 00:20:13;;;;;;;;;2.00;2.00;;;;;8.47;67.14;100818.69;5029582;28;44985;-68
2021/12/07 00:22:40;;;;;;;;;2.50;1.50;;;;;8.24;66.98;100779.66;5029390;28;45052;-70
2021/12/07 00:25:07;;;;;;;;;7.25;1.00;;;;;8.46;67.06;100815.97;5029561;28;45262;-68
2021/12/07 00:27:33;;;;;;;;;1.00;1.00;;;;;8.41;67.08;100809.53;5029987;28;45640;-69
2021/12/07 00:29:59;;;;;;;;;6.00;1.50;;;;;8.30;67.61;100806.50;5029338;28;44974;-70
2021/12/07 00:32:30;;;;;;;;;8.50;3.00;;;;;8.38;67.16;100810.34;5029486;28;45452;-69
2021/12/07 00:37:32;;;;;;;;;3.00;1.75;;;;;8.28;66.42;100792.19;5028992;28;45776;-68
2021/12/07 00:39:58;;;;;;;;;2.75;1.75;;;;;8.39;66.87;100814.78;5029603;28;45065;-69
2021/12/07 00:42:24;;;;;;;;;1.00;1.00;;;;;8.45;67.05;100830.13;5029123;28;44880;-70
2021/12/07 00:44:49;;;;;;;;;2.75;1.00;;;;;8.45;66.29;100835.47;5026085;28;45367;-69
2021/12/07 00:47:16;;;;;;;;;0.25;0.25;;;;;8.43;66.62;100823.81;5023102;28;46308;-70
2021/12/07 00:49:42;;;;;;;;;0.00;0.00;;;;;8.46;66.79;100831.94;5028787;28;45315;-69
2021/12/07 00:52:11;;;;;;;;;2.00;1.00;;;;;8.27;66.12;100804.63;5029478;28;45328;-69
2021/12/07 00:54:36;;;;;;;;;0.00;0.00;;;;;8.50;66.14;100839.19;5030025;28;44899;-69
2021/12/07 00:57:03;;;;;;;;;3.25;2.00;;;;;8.48;66.09;100832.91;5029207;28;45463;-70
2021/12/07 00:59:30;;;;;;;;;1.25;0.75;;;;;8.52;65.61;100840.16;5029472;28;45011;-70
2021/12/07 01:01:56;;;;;;;;;1.50;1.00;;;;;8.53;65.59;100841.03;5027384;28;45151;-70
2021/12/07 01:04:23;;;;;;;;;1.25;1.00;;;;;8.46;65.32;100838.19;5031493;28;45295;-69
2021/12/07 01:07:02;;;;;;;;;0.50;0.50;;;;;8.43;65.08;100840.72;5032048;28;45790;-68
2021/12/07 01:25:40;;;;;;;;;1.25;1.00;;;;;8.55;64.17;100836.72;5032068;28;45064;-68
2021/12/07 01:28:44;;;;;;;;;0.00;0.00;;;;;8.32;63.53;100785.25;5029991;28;45147;-70
2021/12/07 01:31:12;;;;;;;;;0.25;0.00;;;;;8.51;64.39;100817.03;5029297;28;45168;-69
2021/12/07 01:34:01;;;;;;;;;0.75;0.75;;;;;8.14;63.83;100770.41;5032250;28;44985;-68
2021/12/07 01:39:52;;;;;;;;;1.50;0.00;;;;;8.27;64.12;100823.25;5029863;28;45466;-69
2021/12/07 01:50:06;;;;;;;;;1.00;0.00;;;;;8.03;64.24;100825.88;5033771;28;45237;-70
2021/12/07 02:00:22;;;;;;;;;2.75;0.00;;;;;8.28;64.24;100856.09;5034462;28;45213;-70
2021/12/07 02:02:47;;;;;;;;;2.00;1.00;;;;;8.29;63.89;100853.47;5033311;28;45141;-68
2021/12/07 02:05:13;;;;;;;;;0.00;0.00;;;;;8.30;64.30;100851.75;5032154;28;45013;-69
2021/12/07 02:07:39;;;;;;;;;0.50;0.00;;;;;8.30;63.91;100849.97;5032056;28;45063;-68
2021/12/07 02:10:10;;;;;;;;;0.50;0.00;;;;;7.88;63.84;100793.41;5032223;28;45002;-69
2021/12/07 02:12:43;;;;;;;;;0.00;0.00;;;;;8.20;64.00;100852.22;5031171;28;46025;-69
2021/12/07 02:15:12;;;;;;;;;0.50;0.50;;;;;8.20;64.56;100860.22;5032545;28;45072;-69
2021/12/07 02:17:37;;;;;;;;;0.00;0.00;;;;;8.15;64.86;100833.47;5032426;28;45206;-68
2021/12/07 02:20:04;;;;;;;;;2.00;0.00;;;;;8.28;63.90;100854.34;5033502;28;45475;-70
2021/12/07 02:22:29;;;;;;;;;0.00;0.00;;;;;8.33;64.10;100851.84;5033545;28;44953;-69
2021/12/07 02:24:55;;;;;;;;;2.00;0.00;;;;;8.36;63.48;100859.03;5032091;28;45416;-70
2021/12/07 02:27:20;;;;;;;;;0.00;0.00;;;;;8.34;63.42;100855.44;5031909;28;45069;-68
2021/12/07 02:29:46;;;;;;;;;1.00;0.00;;;;;7.83;63.13;100787.91;5031912;28;45309;-69
2021/12/07 02:32:11;;;;;;;;;1.00;0.00;;;;;8.29;64.06;100868.56;5031521;28;45168;-68
2021/12/07 02:34:42;;;;;;;;;0.00;0.00;;;;;8.08;63.53;100834.97;5032882;28;44977;-69
2021/12/07 02:37:08;;;;;;;;;3.50;0.25;;;;;8.25;64.34;100864.88;5032285;28;45201;-69
2021/12/07 02:39:36;;;;;;;;;1.00;0.00;;;;;8.24;63.62;100867.47;5023602;28;45710;-69
2021/12/07 02:42:03;;;;;;;;;2.00;0.00;;;;;8.21;63.38;100868.25;5013332;28;44958;-68
2021/12/07 02:44:29;;;;;;;;;0.00;0.00;;;;;8.03;63.53;100841.84;5027655;28;45020;-68
2021/12/07 02:46:54;;;;;;;;;0.00;0.00;;;;;8.20;63.83;100862.88;5012274;28;45508;-69
2021/12/07 02:49:22;;;;;;;;;0.00;0.00;;;;;8.07;63.45;100840.25;5012021;28;44944;-69
2021/12/07 02:51:48;;;;;;;;;0.25;0.25;;;;;7.82;63.96;100796.75;5012307;28;44931;-69
2021/12/07 02:54:13;;;;;;;;;1.25;0.00;;;;;8.14;63.64;100857.34;5011802;28;45256;-69
2021/12/07 02:56:38;;;;;;;;;0.00;0.00;;;;;8.20;63.40;100869.13;5011714;28;45218;-68
2021/12/07 02:59:04;;;;;;;;;3.00;0.00;;;;;8.24;64.56;100868.38;5010626;28;45682;-69
2021/12/07 03:01:34;;;;;;;;;1.00;1.00;;;;;8.28;63.66;100865.00;5014305;28;45257;-69
2021/12/07 03:04:06;;;;;;;;;4.00;0.50;;;;;8.24;63.40;100864.81;5028164;28;45131;-69
2021/12/07 03:06:54;;;;;;;;;0.00;0.00;;;;;8.26;63.70;100871.09;5014094;28;45595;-68
2021/12/07 03:28:32;;;;;;;;;3.00;1.25;;;;;8.17;65.75;100887.63;5031011;28;45077;-71
2021/12/07 03:30:58;;;;;;;;;1.00;1.00;;;;;8.16;65.25;100882.25;5031832;28;45198;-68
2021/12/07 03:33:23;;;;;;;;;2.00;0.25;;;;;8.13;66.29;100891.00;5031925;28;45121;-71
2021/12/07 03:35:48;;;;;;;;;1.00;1.00;;;;;7.97;65.80;100867.31;5031441;28;45055;-69
2021/12/07 03:38:14;;;;;;;;;1.00;1.00;;;;;8.20;65.15;100909.06;5029886;28;45257;-68
2021/12/07 03:40:40;;;;;;;;;2.75;2.00;;;;;8.22;65.24;100904.69;5029608;28;45653;-68
2021/12/07 03:43:06;;;;;;;;;3.25;1.75;;;;;8.23;65.61;100894.94;5030229;28;44921;-67
2021/12/07 03:45:33;;;;;;;;;2.25;2.00;;;;;8.21;65.58;100880.66;5024454;28;45046;-68
2021/12/07 03:47:59;;;;;;;;;0.75;0.00;;;;;8.14;64.88;100860.00;5011619;28;45132;-68
2021/12/07 03:50:25;;;;;;;;;1.00;1.00;;;;;8.20;65.11;100882.44;5010290;28;45577;-67
2021/12/07 03:52:51;;;;;;;;;1.00;1.00;;;;;8.24;65.52;100896.75;5028077;28;45062;-68
2021/12/07 03:55:18;;;;;;;;;1.00;1.00;;;;;8.14;65.20;100879.53;5030384;28;45392;-70
2021/12/07 03:57:44;;;;;;;;;2.25;0.50;;;;;8.19;64.69;100875.28;5030053;28;45125;-69
2021/12/07 04:00:15;;;;;;;;;1.75;0.00;;;;;8.29;64.10;100881.88;5029463;28;45667;-69
2021/12/07 04:02:42;;;;;;;;;1.50;0.50;;;;;8.24;64.08;100879.03;5029220;28;45385;-68
2021/12/07 04:05:13;;;;;;;;;0.00;0.00;;;;;8.04;64.63;100858.75;5030975;28;45376;-69
2021/12/07 04:07:38;;;;;;;;;2.00;0.00;;;;;7.94;64.31;100845.06;5030207;28;45615;-71
2021/12/07 04:10:06;;;;;;;;;1.50;1.00;;;;;7.55;65.01;100769.97;5029769;28;45491;-68
2021/12/07 04:12:32;;;;;;;;;3.00;1.00;;;;;8.08;64.35;100861.59;5027515;28;45225;-68
2021/12/07 04:14:58;;;;;;;;;4.00;2.25;;;;;8.10;64.93;100867.88;5029817;28;45076;-68
2021/12/07 04:17:23;;;;;;;;;0.00;0.00;;;;;8.07;65.07;100877.50;5030281;28;45367;-67
2021/12/07 04:19:48;;;;;;;;;1.00;0.00;;;;;8.01;64.81;100879.91;5029645;28;46085;-68
2021/12/07 04:22:14;;;;;;;;;1.75;0.00;;;;;8.03;64.63;100887.09;5029615;28;44983;-68
2021/12/07 04:24:39;;;;;;;;;4.50;1.00;;;;;7.79;64.79;100857.78;5029753;28;45058;-69
2021/12/07 04:27:05;;;;;;;;;0.00;0.00;;;;;8.01;64.82;100882.56;5029374;28;45006;-68
2021/12/07 04:29:31;;;;;;;;;1.00;1.00;;;;;7.86;65.16;100850.97;5028834;28;45049;-70
2021/12/07 04:31:56;;;;;;;;;0.00;0.00;;;;;8.03;65.46;100880.88;5030220;28;44950;-70
2021/12/07 04:34:22;;;;;;;;;1.00;1.00;;;;;7.87;64.56;100850.09;5045850;28;45116;-69
2021/12/07 04:36:47;;;;;;;;;1.00;1.00;;;;;7.99;65.09;100884.28;5030391;28;45297;-69
2021/12/07 04:39:13;;;;;;;;;1.25;0.00;;;;;7.99;65.14;100873.63;5030441;28;45254;-69
2021/12/07 04:41:42;;;;;;;;;1.00;1.00;;;;;7.82;65.39;100855.25;5029191;28;45104;-69
2021/12/07 04:44:07;;;;;;;;;5.00;1.00;;;;;7.94;64.64;100877.00;5030051;28;45093;-69
2021/12/07 04:46:44;;;;;;;;;0.00;0.00;;;;;7.78;65.21;100839.13;5029336;28;45413;-70
2021/12/07 05:00:11;;;;;;;;;3.75;1.75;;;;;8.00;64.57;100872.75;5028699;28;45690;-69
2021/12/07 05:02:38;;;;;;;;;2.25;2.00;;;;;7.99;64.09;100877.19;5028723;28;45143;-71
2021/12/07 05:05:04;;;;;;;;;0.75;0.75;;;;;7.96;64.57;100878.81;5031571;28;45484;-71
2021/12/07 05:07:37;;;;;;;;;3.00;1.00;;;;;7.73;64.44;100830.94;5031331;28;44951;-69
2021/12/07 05:10:23;;;;;;;;;2.00;1.50;;;;;7.93;64.58;100869.84;5030411;28;45053;-69
2021/12/07 05:34:35;;;;;;;;;0.00;0.00;;;;;7.64;65.34;100843.88;5035332;28;45108;-68
2021/12/07 05:39:42;;;;;;;;;3.00;1.50;;;;;7.65;65.40;100880.25;5012047;28;45117;-69
2021/12/07 05:42:08;;;;;;;;;0.75;0.75;;;;;7.71;65.95;100885.84;5012127;28;45490;-70
2021/12/07 05:44:34;;;;;;;;;1.50;1.50;;;;;7.75;65.19;100890.41;5012070;28;44978;-70
2021/12/07 05:46:59;;;;;;;;;3.75;1.25;;;;;7.79;65.30;100887.06;5010911;28;44881;-69
2021/12/07 05:49:25;;;;;;;;;2.00;1.75;;;;;7.61;65.13;100841.13;5028753;28;45118;-68
2021/12/07 05:51:51;;;;;;;;;3.00;3.00;;;;;7.63;65.23;100840.31;5046487;28;46266;-71
2021/12/07 05:54:16;;;;;;;;;2.25;1.75;;;;;7.83;65.21;100875.66;5031871;28;45116;-69
2021/12/07 05:56:42;;;;;;;;;4.75;3.50;;;;;7.68;65.63;100840.50;5031900;28;45025;-68
2021/12/07 05:59:07;;;;;;;;;1.00;1.00;;;;;7.50;64.64;100824.72;5032993;28;45093;-71
2021/12/07 06:01:32;;;;;;;;;3.75;2.25;;;;;7.72;65.52;100863.69;5030996;28;45144;-69
2021/12/07 06:03:58;;;;;;;;;10.00;6.00;;;;;7.81;64.95;100876.47;5030957;28;45268;-69
2021/12/07 06:06:23;;;;;;;;;10.50;8.00;;;;;7.87;64.43;100896.25;5031646;28;45487;-72
2021/12/07 06:08:48;;;;;;;;;5.25;5.25;;;;;7.62;64.63;100866.84;5031671;28;45151;-70
2021/12/07 06:11:14;;;;;;;;;5.25;4.50;;;;;7.67;65.36;100883.88;5031108;28;45694;-68
2021/12/07 06:13:39;;;;;;;;;7.00;3.75;;;;;7.72;64.90;100888.56;5031276;28;44958;-69
2021/12/07 06:16:07;;;;;;;;;5.75;3.00;;;;;7.72;65.65;100884.97;5032632;28;44970;-69
2021/12/07 06:18:35;;;;;;;;;3.25;3.00;;;;;7.70;65.03;100866.28;5031630;28;45166;-68
2021/12/07 06:21:01;;;;;;;;;8.25;4.75;;;;;7.59;65.09;100834.81;5028409;28;47457;-69
2021/12/07 06:23:26;;;;;;;;;8.25;5.50;;;;;7.80;65.63;100850.72;5030634;28;45197;-69
2021/12/07 06:25:54;;;;;;;;;8.00;4.00;;;;;7.88;65.56;100851.91;5031732;28;44911;-68
2021/12/07 06:28:20;;;;;;;;;26.00;18.00;;;;;7.92;64.74;100852.09;5031604;28;45041;-69
2021/12/07 06:30:47;;;;;;;;;6.75;6.75;;;;;7.88;64.26;100831.53;5029797;28;45829;-68
2021/12/07 06:33:16;;;;;;;;;4.00;3.00;;;;;7.90;64.42;100850.22;5014412;28;45141;-70
2021/12/07 06:35:42;;;;;;;;;7.00;4.75;;;;;7.55;65.08;100786.81;5016139;28;45394;-70
2021/12/07 06:38:08;;;;;;;;;6.50;4.50;;;;;7.92;65.28;100825.50;5009321;28;45550;-69
2021/12/07 06:40:33;;;;;;;;;4.75;4.75;;;;;7.96;65.53;100821.19;5016056;28;45467;-69
2021/12/07 06:43:00;;;;;;;;;4.75;3.00;;;;;7.93;65.27;100815.75;5015731;28;45424;-69
2021/12/07 06:45:28;;;;;;;;;6.00;2.00;;;;;8.00;64.74;100830.19;5016240;28;45275;-72
2021/12/07 06:47:54;;;;;;;;;4.00;4.00;;;;;8.01;65.39;100832.00;5016586;28;45470;-69
2021/12/07 06:50:20;;;;;;;;;4.00;3.00;;;;;7.87;65.81;100803.13;5029298;28;45560;-69
2021/12/07 06:52:46;;;;;;;;;9.75;6.75;;;;;8.04;65.12;100826.81;5018069;28;45526;-70
2021/12/07 06:55:11;;;;;;;;;11.25;8.00;;;;;7.78;65.56;100780.59;5033799;28;45490;-69
2021/12/07 06:57:37;;;;;;;;;8.50;6.25;;;;;7.97;65.36;100815.03;5031509;28;45563;-69
2021/12/07 07:00:06;;;;;;;;;5.75;5.25;;;;;8.02;64.97;100813.47;5019235;28;46157;-71
2021/12/07 07:02:32;;;;;;;;;10.50;7.50;;;;;7.76;64.76;100767.25;5021565;28;45997;-69
2021/12/07 07:04:57;;;;;;;;;13.00;9.25;;;;;7.78;64.98;100769.97;5017655;28;45374;-70
2021/12/07 07:07:24;;;;;;;;;8.50;5.00;;;;;7.99;64.83;100800.03;5025770;28;45370;-70
2021/12/07 07:09:51;;;;;;;;;16.75;12.75;;;;;7.94;65.27;100797.19;5025356;28;45555;-69
2021/12/07 07:12:17;;;;;;;;;11.00;10.00;;;;;7.93;64.93;100794.47;5028322;28;45496;-70
2021/12/07 07:14:42;;;;;;;;;15.25;12.25;;;;;7.89;66.06;100797.88;5030511;28;45148;-70
2021/12/07 07:17:08;;;;;;;;;12.25;8.50;;;;;7.75;65.25;100768.06;5030137;28;45094;-72
2021/12/07 07:19:33;;;;;;;;;12.25;9.00;;;;;7.65;65.63;100755.28;5031263;28;45535;-73
2021/12/07 07:22:01;;;;;;;;;10.25;10.00;;;;;7.63;65.80;100751.66;5016347;28;45574;-71
2021/12/07 07:24:28;;;;;;;;;19.75;14.25;;;;;7.82;66.07;100777.19;5021866;28;45468;-72
2021/12/07 07:26:53;;;;;;;;;13.25;9.00;;;;;7.79;66.32;100785.97;5018550;28;45463;-72
2021/12/07 07:29:19;;;;;;;;;16.50;12.00;;;;;7.67;65.87;100767.81;5015536;28;45922;-70
2021/12/07 07:31:44;;;;;;;;;21.25;16.25;;;;;7.81;66.22;100764.75;5014677;28;45668;-70
2021/12/07 07:34:09;;;;;;;;;19.75;17.00;;;;;7.54;65.89;100712.34;5015729;28;45409;-71
2021/12/07 07:36:35;;;;;;;;;22.75;14.25;;;;;7.84;65.84;100755.13;5022856;28;45501;-73
2021/12/07 07:39:00;;;;;;;;;20.00;17.00;;;;;7.81;65.72;100756.78;5031904;28;46013;-72
2021/12/07 07:41:25;;;;;;;;;23.25;14.00;;;;;7.14;65.74;100655.91;5030079;28;45132;-70
2021/12/07 07:43:51;;;;;;;;;27.50;13.25;;;;;7.68;66.22;100747.44;5017699;28;45468;-71
2021/12/07 07:46:16;;;;;;;;;11.50;11.50;;;;;7.51;66.79;100709.56;5014481;28;45397;-72
2021/12/07 07:48:42;;;;;;;;;20.75;18.00;;;;;7.55;66.98;100719.47;5014066;28;46184;-72
2021/12/07 07:51:09;;;;;;;;;15.75;14.00;;;;;7.67;66.77;100748.25;5015589;28;45463;-69
2021/12/07 07:53:34;;;;;;;;;18.75;16.75;;;;;7.66;67.05;100731.41;5021863;28;45390;-73
2021/12/07 07:55:59;;;;;;;;;22.75;19.25;;;;;7.62;66.64;100729.47;5023931;28;45457;-70
2021/12/07 07:58:25;;;;;;;;;16.25;13.75;;;;;7.65;66.88;100724.28;5024615;28;46746;-73
2021/12/07 08:00:50;;;;;;;;;18.00;14.25;;;;;7.64;66.76;100732.19;5026270;28;45453;-71
2021/12/07 08:03:16;;;;;;;;;21.00;17.75;;;;;7.50;67.04;100713.97;5014868;28;45433;-73
2021/12/07 08:05:41;;;;;;;;;22.00;16.75;;;;;7.60;67.44;100722.31;5014935;28;45547;-70
2021/12/07 08:08:07;;;;;;;;;16.00;15.25;;;;;7.56;67.70;100716.88;5012866;28;48268;-73
2021/12/07 08:10:32;;;;;;;;;22.50;19.00;;;;;7.67;67.43;100724.34;5014603;28;45491;-72
2021/12/07 08:13:00;;;;;;;;;26.75;15.50;;;;;7.44;67.64;100687.19;5014045;28;45723;-71
2021/12/07 08:15:28;;;;;;;;;19.00;16.00;;;;;7.52;67.38;100711.38;5014676;28;45284;-73
2021/12/07 08:17:55;;;;;;;;;17.75;13.00;;;;;7.39;66.90;100694.03;5014077;28;45577;-73
2021/12/07 08:20:20;;;;;;;;;20.75;17.50;;;;;7.21;67.78;100651.75;5014031;28;45505;-73
2021/12/07 08:22:47;;;;;;;;;20.75;15.50;;;;;7.20;67.31;100631.31;5013527;28;45420;-70
2021/12/07 08:25:13;;;;;;;;;6.25;0.00;;;;;7.28;67.04;100650.22;5013397;28;45529;-74
2021/12/07 08:27:38;;;;;;;;;24.50;20.25;;;;;7.44;67.16;100675.63;5013801;28;46577;-74
2021/12/07 08:30:06;;;;;;;;;28.25;15.75;;;;;7.44;67.31;100678.28;5014658;28;45478;-72
2021/12/07 08:32:32;;;;;;;;;23.00;16.75;;;;;7.47;67.40;100673.97;5013882;28;45332;-72
2021/12/07 08:34:58;;;;;;;;;25.75;18.25;;;;;7.44;67.15;100676.53;5014536;28;45392;-71
2021/12/07 08:37:23;;;;;;;;;22.75;14.50;;;;;7.19;67.12;100643.72;5012637;28;46086;-73
2021/12/07 08:39:48;;;;;;;;;16.75;12.75;;;;;7.44;67.57;100679.19;5013970;28;45383;-71
2021/12/07 08:42:15;;;;;;;;;15.25;15.00;;;;;7.06;67.32;100601.59;5013552;28;45515;-75
2021/12/07 08:44:41;;;;;;;;;40.75;34.50;;;;;7.53;67.24;100668.00;5012843;28;45394;-72
2021/12/07 08:47:06;;;;;;;;;22.75;21.50;;;;;7.53;67.59;100668.00;5013596;28;46254;-73
2021/12/07 08:49:32;;;;;;;;;25.50;18.25;;;;;7.49;66.67;100661.66;5013832;28;45410;-74
2021/12/07 08:51:58;;;;;;;;;25.50;18.75;;;;;7.65;66.94;100673.75;5014334;28;45428;-73
2021/12/07 08:59:42;;;;;;;;;23.50;17.25;;;;;7.04;67.06;100549.25;5019678;28;45477;-72
2021/12/07 09:02:08;;;;;;;;;24.25;15.75;;;;;7.48;66.67;100624.41;5017518;28;45397;-72
2021/12/07 09:04:33;;;;;;;;;16.75;15.25;;;;;7.41;67.57;100623.25;5019815;28;45453;-71
2021/12/07 09:06:59;;;;;;;;;25.75;17.25;;;;;7.53;67.58;100620.16;5018637;28;46088;-73
2021/12/07 09:09:24;;;;;;;;;29.25;16.50;;;;;7.35;67.33;100560.13;5017392;28;45370;-73
2021/12/07 09:11:52;;;;;;;;;14.00;12.00;;;;;7.55;67.07;100590.09;5017247;28;45430;-72
2021/12/07 09:14:18;;;;;;;;;17.00;14.25;;;;;7.55;67.53;100578.56;5017184;28;45490;-73
2021/12/07 09:16:45;;;;;;;;;25.00;17.75;;;;;7.47;67.57;100541.06;5017016;28;45413;-70
2021/12/07 09:19:11;;;;;;;;;16.50;14.50;;;;;7.65;67.06;100580.69;5017168;28;45540;-72
2021/12/07 09:21:36;;;;;;;;;22.25;15.00;;;;;7.41;67.57;100553.22;5017509;28;45687;-73
2021/12/07 09:24:02;;;;;;;;;18.50;18.50;;;;;7.47;68.00;100562.31;5017538;28;45469;-72
2021/12/07 09:26:28;;;;;;;;;17.75;13.50;;;;;7.27;68.09;100518.19;5017174;28;45393;-71
2021/12/07 09:28:54;;;;;;;;;14.25;12.50;;;;;7.30;67.91;100537.81;5016599;28;45349;-72
2021/12/07 09:31:22;;;;;;;;;15.50;14.25;;;;;7.38;68.26;100543.41;5015555;28;45435;-72
2021/12/07 09:33:48;;;;;;;;;12.75;10.50;;;;;7.37;68.23;100565.50;5017071;28;45553;-73
2021/12/07 09:36:14;;;;;;;;;19.75;13.50;;;;;7.30;68.83;100531.59;5016698;28;45331;-71
2021/12/07 09:38:40;;;;;;;;;6.50;5.25;;;;;7.49;69.10;100552.69;5015570;28;45468;-73
2021/12/07 09:41:11;;;;;;;;;23.00;19.75;;;;;7.23;68.57;100524.28;5032076;28;45301;-72
2021/12/07 09:43:36;;;;;;;;;13.25;11.25;;;;;7.40;68.45;100573.59;5016897;28;45453;-73
2021/12/07 09:46:04;;;;;;;;;20.25;14.25;;;;;7.20;68.49;100541.00;5016231;28;46200;-71
2021/12/07 09:48:29;;;;;;;;;16.00;12.75;;;;;6.91;68.70;100487.69;5016606;28;45481;-73
2021/12/07 09:50:56;;;;;;;;;14.00;14.00;;;;;7.10;68.54;100505.22;5016841;28;45316;-71
2021/12/07 09:53:23;;;;;;;;;13.50;11.00;;;;;7.45;67.68;100552.50;5017175;28;45703;-71
2021/12/07 09:55:49;;;;;;;;;13.00;9.25;;;;;7.20;68.09;100514.41;5016407;28;46292;-72
2021/12/07 09:58:16;;;;;;;;;26.00;23.50;;;;;7.34;67.93;100542.41;5016377;28;45413;-72
2021/12/07 10:00:46;;;;;;;;;17.75;13.75;;;;;7.36;68.18;100535.38;5016798;28;45551;-73
2021/12/07 10:03:12;;;;;;;;;16.75;14.25;;;;;7.43;67.86;100546.25;5017058;28;45582;-72
2021/12/07 10:05:40;;;;;;;;;12.00;10.00;;;;;7.33;67.90;100529.06;5016323;28;45497;-70
2021/12/07 10:08:07;;;;;;;;;11.75;10.00;;;;;7.49;67.96;100547.38;5016222;28;45498;-73
2021/12/07 10:10:39;;;;;;;;;9.50;9.00;;;;;7.40;68.35;100535.50;5015637;28;45438;-74
2021/12/07 10:13:07;;;;;;;;;15.50;14.50;;;;;7.56;68.52;100543.16;5016357;28;45433;-71
2021/12/07 10:15:32;;;;;;;;;19.50;18.00;;;;;7.63;68.52;100536.31;5016045;28;45517;-71
2021/12/07 10:18:13;;;;;;;;;19.75;14.25;;;;;7.67;68.21;100514.28;5015352;28;46032;-73
2021/12/07 10:20:45;;;;;;;;;19.25;10.75;;;;;7.43;68.43;100467.41;5017676;28;45409;-72
2021/12/07 10:23:13;;;;;;;;;14.50;11.25;;;;;7.69;68.61;100504.63;5018134;28;45465;-73
2021/12/07 10:25:40;;;;;;;;;19.00;12.75;;;;;7.67;68.69;100498.31;5016090;28;45367;-72
2021/12/07 10:28:32;;;;;;;;;14.75;14.50;;;;;7.73;68.70;100474.59;5014911;28;46388;-72
2021/12/07 10:31:15;;;;;;;;;17.25;10.25;;;;;7.66;68.80;100473.50;5015962;28;45414;-73
2021/12/07 10:33:47;;;;;;;;;13.50;9.00;;;;;7.65;68.93;100454.84;5016605;28;45446;-73
2021/12/07 10:36:18;;;;;;;;;16.00;14.00;;;;;7.41;69.60;100426.59;5015895;28;45373;-71
2021/12/07 10:38:55;;;;;;;;;21.00;18.25;;;;;7.66;69.73;100438.03;5016030;28;45418;-75
2021/12/07 10:41:23;;;;;;;;;11.50;7.00;;;;;7.74;69.65;100440.09;5016079;28;45393;-73
2021/12/07 10:43:54;;;;;;;;;14.75;12.00;;;;;7.83;69.64;100426.19;5031416;28;45400;-74
2021/12/07 10:46:37;;;;;;;;;13.25;10.50;;;;;7.55;69.66;100360.56;5015535;28;46083;-74
2021/12/07 10:49:25;;;;;;;;;13.75;10.50;;;;;7.81;69.35;100411.03;5015739;28;45530;-72
2021/12/07 10:52:32;;;;;;;;;15.25;11.75;;;;;7.79;70.25;100395.03;5015905;28;45384;-76
2021/12/07 10:55:06;;;;;;;;;17.75;14.50;;;;;7.87;69.43;100379.28;5016666;28;45548;-74
2021/12/07 10:57:47;;;;;;;;;16.00;14.75;;;;;7.94;69.86;100368.00;5015691;28;46761;-71
2021/12/07 11:00:40;;;;;;;;;15.25;14.00;;;;;7.86;70.35;100334.97;5016063;28;45349;-75
2021/12/07 11:03:10;;;;;;;;;20.50;15.75;;;;;7.67;69.44;100294.50;5017310;28;45332;-75
2021/12/07 11:05:41;;;;;;;;;14.25;14.25;;;;;8.07;69.71;100345.34;5018135;28;45494;-72
2021/12/07 11:08:08;;;;;;;;;21.25;16.50;;;;;7.70;69.85;100285.72;5019110;28;45452;-73
2021/12/07 11:10:38;;;;;;;;;14.75;14.50;;;;;8.04;69.89;100326.63;5018416;28;45600;-73
2021/12/07 11:13:18;;;;;;;;;18.00;16.25;;;;;7.49;69.97;100211.50;5015671;28;45283;-74
2021/12/07 11:15:52;;;;;;;;;16.50;11.00;;;;;8.13;68.96;100297.63;5015758;28;45418;-74
2021/12/07 11:18:39;;;;;;;;;20.50;17.50;;;;;8.22;69.58;100281.91;5015079;28;46406;-75
2021/12/07 11:21:08;;;;;;;;;15.00;13.50;;;;;8.20;69.57;100258.78;5012569;28;45403;-75
2021/12/07 11:23:42;;;;;;;;;21.75;17.50;;;;;8.21;68.63;100258.81;5015660;28;45287;-73
2021/12/07 11:31:41;;;;;;;;;12.25;10.75;;;;;8.38;68.42;100223.78;5015168;28;45438;-74
2021/12/07 11:34:19;;;;;;;;;17.75;13.75;;;;;8.39;69.04;100225.59;5013814;28;45724;-76
2021/12/07 11:36:56;;;;;;;;;16.00;12.00;;;;;8.44;68.37;100229.31;5015423;28;45470;-74
2021/12/07 11:39:49;;;;;;;;;17.75;12.50;;;;;8.46;68.92;100203.63;5014704;28;46439;-76
2021/12/07 11:42:14;;;;;;;;;11.50;10.75;;;;;8.05;68.20;100107.59;5015161;28;45426;-73
2021/12/07 11:44:48;;;;;;;;;13.25;10.25;;;;;8.49;68.88;100182.41;5013614;28;45429;-72
2021/12/07 11:47:14;;;;;;;;;12.25;9.75;;;;;8.59;67.96;100179.09;5015354;28;45283;-73
2021/12/07 11:49:40;;;;;;;;;14.00;10.50;;;;;8.44;68.11;100152.09;5014807;28;45786;-72
2021/12/07 11:52:08;;;;;;;;;13.25;11.00;;;;;8.62;68.55;100160.56;5014505;28;45382;-74
2021/12/07 11:54:37;;;;;;;;;10.75;8.50;;;;;8.69;67.74;100150.94;5015049;28;45399;-75
2021/12/07 11:57:06;;;;;;;;;10.00;8.50;;;;;8.67;67.62;100134.94;5014824;28;45485;-73
2021/12/07 11:59:32;;;;;;;;;16.00;9.50;;;;;8.54;67.50;100087.56;5013162;28;45506;-73
2021/12/07 12:01:57;;;;;;;;;14.25;14.25;;;;;8.73;67.65;100112.88;5014417;28;45444;-72
2021/12/07 12:04:23;;;;;;;;;13.00;10.00;;;;;8.41;66.93;100041.09;5014301;28;45354;-76
2021/12/07 12:06:52;;;;;;;;;13.25;11.50;;;;;8.71;67.09;100068.44;5014123;28;45484;-72
2021/12/07 12:09:18;;;;;;;;;12.50;9.50;;;;;8.88;67.64;100088.38;5013876;28;45495;-73
2021/12/07 12:12:22;;;;;;;;;11.25;8.50;;;;;8.82;67.53;100070.47;5013774;28;46371;-73
2021/12/07 12:14:53;;;;;;;;;17.50;15.00;;;;;8.94;67.40;100082.25;5010662;28;45320;-74
2021/12/07 12:17:43;;;;;;;;;14.00;11.25;;;;;8.95;67.09;100073.41;5014211;28;45319;-72
2021/12/07 12:20:33;;;;;;;;;18.25;14.75;;;;;8.95;66.34;100054.78;5014195;28;45402;-74
2021/12/07 12:23:05;;;;;;;;;24.25;20.00;;;;;8.92;66.48;100060.91;5014343;28;45403;-72
2021/12/07 12:25:31;;;;;;;;;16.25;11.75;;;;;8.89;67.25;100047.53;5014720;28;45408;-72
2021/12/07 12:27:57;;;;;;;;;12.50;9.00;;;;;8.75;66.56;100027.69;5029089;28;45438;-74
2021/12/07 12:30:23;;;;;;;;;15.75;11.00;;;;;8.88;67.56;100039.53;5012261;28;46150;-73
2021/12/07 12:32:54;;;;;;;;;15.00;15.00;;;;;8.78;67.64;100006.47;5014042;28;45559;-72
2021/12/07 12:35:46;;;;;;;;;16.25;10.00;;;;;8.94;67.01;100011.25;5014152;28;45334;-71
2021/12/07 12:38:29;;;;;;;;;11.75;7.25;;;;;8.88;66.68;99997.81;5009695;28;46836;-71
2021/12/07 12:40:59;;;;;;;;;12.00;10.25;;;;;8.87;67.03;99985.34;5013859;28;46862;-69
2021/12/07 12:43:54;;;;;;;;;15.50;10.75;;;;;8.89;67.47;99978.25;5012592;28;45449;-74
2021/12/07 12:46:25;;;;;;;;;11.75;10.00;;;;;8.88;66.79;99967.59;5012545;28;45382;-73
2021/12/07 12:48:56;;;;;;;;;11.25;8.00;;;;;8.88;66.98;99956.97;5014507;28;45400;-75
2021/12/07 12:51:24;;;;;;;;;10.25;8.00;;;;;8.83;67.01;99944.44;5013881;28;45386;-72
2021/12/07 12:53:51;;;;;;;;;7.75;6.25;;;;;8.93;67.26;99934.84;5013489;28;45482;-74
2021/12/07 12:56:23;;;;;;;;;10.75;8.00;;;;;8.89;66.53;99932.97;5012741;28;45296;-73
2021/12/07 12:58:58;;;;;;;;;16.25;12.25;;;;;8.94;67.41;99912.69;5014051;28;45586;-73
2021/12/07 13:01:32;;;;;;;;;17.50;7.50;;;;;8.95;67.45;99887.81;5013808;28;46452;-71
2021/12/07 13:03:57;;;;;;;;;12.75;10.00;;;;;9.09;66.92;99895.19;5013397;28;45501;-70
2021/12/07 13:06:32;;;;;;;;;9.25;8.25;;;;;9.05;66.96;99902.22;5015185;28;45313;-70
2021/12/07 13:08:59;;;;;;;;;13.50;12.50;;;;;8.92;66.82;99876.22;5016262;28;45519;-72
2021/12/07 13:11:46;;;;;;;;;11.25;7.75;;;;;9.08;66.38;99906.72;5014322;28;48233;-72
2021/12/07 13:14:33;;;;;;;;;7.00;7.00;;;;;9.08;65.72;99893.41;5015326;28;45326;-72
2021/12/07 13:17:14;;;;;;;;;6.50;5.50;;;;;9.14;65.90;99875.75;5014013;28;45439;-72